Time;durP1;ratioP1;P1;durP2;ratioP2;P2;SDS_P1;SDS_P2;PMS_P1;PMS_P2;Temp;Humidity;BMP_temperature;BMP_pressure;BME280_temperature;BME280_humidity;BME280_pressure;Samples;Min_cycle;Max_cycle;Signal;HPM_P1;HPM_P2
2022/11/20 00:00:41;;;;;;;0.70;0.63;;;5.20;99.90;;;;;;5115546;28;20447;-76
2022/11/20 00:03:08;;;;;;;0.30;0.30;;;5.20;99.90;;;;;;5115534;27;20541;-76
2022/11/20 00:05:35;;;;;;;0.60;0.33;;;5.20;99.90;;;;;;5115498;28;20490;-76
2022/11/20 00:08:03;;;;;;;0.40;0.40;;;5.10;99.90;;;;;;5115519;28;20534;-76
2022/11/20 00:10:30;;;;;;;0.50;0.30;;;5.10;99.90;;;;;;5115580;28;20471;-77
2022/11/20 00:13:00;;;;;;;0.30;0.30;;;5.10;99.90;;;;;;5115338;28;20496;-77
2022/11/20 00:15:27;;;;;;;0.80;0.80;;;5.10;99.90;;;;;;5115612;28;20517;-77
2022/11/20 00:17:54;;;;;;;0.30;0.20;;;5.10;99.90;;;;;;5115130;27;20501;-77
2022/11/20 00:20:21;;;;;;;0.30;0.30;;;5.20;99.90;;;;;;5114977;27;20475;-79
2022/11/20 00:22:48;;;;;;;0.40;0.30;;;5.10;99.90;;;;;;5114868;28;20935;-77
2022/11/20 00:25:15;;;;;;;0.37;0.30;;;5.10;99.90;;;;;;5115351;27;20504;-77
2022/11/20 00:27:42;;;;;;;0.30;0.30;;;5.10;99.90;;;;;;5115068;27;20496;-77
2022/11/20 00:30:11;;;;;;;0.40;0.30;;;5.20;99.90;;;;;;5114989;28;20505;-77
2022/11/20 00:32:38;;;;;;;0.30;0.30;;;5.20;99.90;;;;;;5114949;28;20443;-77
2022/11/20 00:35:05;;;;;;;0.60;0.50;;;5.30;99.90;;;;;;5114500;28;20836;-77
2022/11/20 00:37:32;;;;;;;0.67;0.67;;;5.30;99.90;;;;;;5114838;28;20448;-77
2022/11/20 00:39:59;;;;;;;0.40;0.30;;;5.30;99.90;;;;;;5114811;28;20446;-77
2022/11/20 00:42:26;;;;;;;0.60;0.30;;;5.30;99.90;;;;;;5114737;28;20448;-77
2022/11/20 00:44:52;;;;;;;0.60;0.47;;;5.30;99.90;;;;;;5114586;28;20483;-77
2022/11/20 00:47:21;;;;;;;1.33;1.33;;;5.30;99.90;;;;;;5114692;28;20440;-76
2022/11/20 00:49:47;;;;;;;0.30;0.27;;;5.30;99.90;;;;;;5114592;28;20451;-77
2022/11/20 00:52:14;;;;;;;0.53;0.50;;;5.30;99.90;;;;;;5114531;28;20454;-77
2022/11/20 00:54:41;;;;;;;0.40;0.30;;;5.30;99.90;;;;;;5114476;28;20467;-77
2022/11/20 00:57:08;;;;;;;0.30;0.30;;;5.30;99.90;;;;;;5114038;28;20455;-76
2022/11/20 00:59:34;;;;;;;0.30;0.30;;;5.30;99.90;;;;;;5114080;28;20514;-77
2022/11/20 01:02:01;;;;;;;0.40;0.40;;;5.30;99.90;;;;;;5114367;28;20458;-77
2022/11/20 01:04:29;;;;;;;0.87;0.30;;;5.30;99.90;;;;;;5114175;28;20487;-77
2022/11/20 01:06:56;;;;;;;0.40;0.33;;;5.30;99.90;;;;;;5114293;28;20447;-77
2022/11/20 01:09:23;;;;;;;0.57;0.57;;;5.30;99.90;;;;;;5114263;28;20443;-77
2022/11/20 01:11:50;;;;;;;0.30;0.20;;;5.20;99.90;;;;;;5114242;28;20443;-76
2022/11/20 01:14:19;;;;;;;0.70;0.30;;;5.10;99.90;;;;;;5114103;28;20474;-77
2022/11/20 01:16:48;;;;;;;0.40;0.30;;;5.10;99.90;;;;;;5114209;28;20451;-77
2022/11/20 01:19:17;;;;;;;0.40;0.40;;;5.10;99.90;;;;;;5113872;27;21002;-77
2022/11/20 01:21:48;;;;;;;0.30;0.30;;;5.00;99.90;;;;;;5114053;28;20447;-77
2022/11/20 01:24:17;;;;;;;0.67;0.57;;;5.00;99.90;;;;;;5114486;28;20486;-77
2022/11/20 01:26:46;;;;;;;0.50;0.50;;;4.90;99.90;;;;;;5113702;28;20957;-77
2022/11/20 01:29:16;;;;;;;1.40;0.50;;;4.90;99.90;;;;;;5114002;28;20446;-77
2022/11/20 01:31:43;;;;;;;0.70;0.67;;;4.90;99.90;;;;;;5114037;28;20466;-77
2022/11/20 01:34:13;;;;;;;0.40;0.30;;;4.80;99.90;;;;;;5113593;28;21017;-77
2022/11/20 01:36:41;;;;;;;0.47;0.47;;;4.90;99.90;;;;;;5113672;28;20428;-77
2022/11/20 01:39:13;;;;;;;0.30;0.30;;;4.80;99.90;;;;;;5113899;28;20444;-77
2022/11/20 01:44:46;;;;;;;0.40;0.30;;;4.80;99.90;;;;;;5113774;28;20442;-77
2022/11/20 01:47:16;;;;;;;1.80;0.60;;;4.80;99.90;;;;;;5113847;28;20428;-77
2022/11/20 01:49:48;;;;;;;0.30;0.30;;;4.80;99.90;;;;;;5113826;28;20438;-77
2022/11/20 01:52:19;;;;;;;0.30;0.20;;;4.80;99.90;;;;;;5113828;28;20427;-77
2022/11/20 01:54:52;;;;;;;0.40;0.30;;;4.70;99.90;;;;;;5113746;28;20474;-77
2022/11/20 01:57:20;;;;;;;0.60;0.40;;;4.70;99.90;;;;;;5113439;28;20933;-77
2022/11/20 01:59:53;;;;;;;0.40;0.40;;;4.70;99.90;;;;;;5113687;28;20443;-77
2022/11/20 02:02:21;;;;;;;2.47;0.40;;;4.70;99.90;;;;;;5113407;28;20416;-77
2022/11/20 02:04:50;;;;;;;0.40;0.40;;;4.60;99.90;;;;;;5113485;28;20484;-77
2022/11/20 02:07:17;;;;;;;0.57;0.57;;;4.50;99.90;;;;;;5113603;28;20851;-77
2022/11/20 02:09:44;;;;;;;0.40;0.40;;;4.60;99.90;;;;;;5115640;28;20443;-77
2022/11/20 02:13:42;;;;;;;0.30;0.30;;;4.50;99.90;;;;;;5117671;28;20466;-77
2022/11/20 02:14:58;;;;;;;0.30;0.20;;;4.50;99.90;;;;;;5117124;28;20464;-77
2022/11/20 02:17:25;;;;;;;1.30;0.40;;;4.40;99.90;;;;;;5117547;28;20450;-77
2022/11/20 02:19:52;;;;;;;0.40;0.30;;;4.30;99.90;;;;;;5117310;28;20233;-77
2022/11/20 02:22:24;;;;;;;0.30;0.30;;;4.30;99.90;;;;;;5117458;28;20443;-77
2022/11/20 02:24:52;;;;;;;0.30;0.30;;;4.30;99.90;;;;;;5117573;28;20475;-77
2022/11/20 02:27:19;;;;;;;0.30;0.20;;;4.40;99.90;;;;;;5117421;28;20450;-77
2022/11/20 02:29:50;;;;;;;0.60;0.40;;;4.40;99.90;;;;;;5117187;28;20950;-77
2022/11/20 02:32:21;;;;;;;0.87;0.40;;;4.40;99.90;;;;;;5117298;28;20899;-77
2022/11/20 02:34:48;;;;;;;1.10;0.50;;;4.50;99.90;;;;;;5117437;28;20474;-77
2022/11/20 02:37:16;;;;;;;0.50;0.40;;;4.40;99.90;;;;;;5117221;28;20446;-77
2022/11/20 02:39:44;;;;;;;0.30;0.30;;;4.40;99.90;;;;;;5117163;28;20451;-77
2022/11/20 02:42:12;;;;;;;0.40;0.37;;;4.40;99.90;;;;;;5116814;28;20449;-76
2022/11/20 02:44:39;;;;;;;1.03;0.43;;;4.40;99.90;;;;;;5116889;28;20829;-77
2022/11/20 02:47:05;;;;;;;0.40;0.30;;;4.50;99.90;;;;;;5117035;28;20439;-77
2022/11/20 02:49:32;;;;;;;1.30;0.57;;;4.50;99.90;;;;;;5116962;28;20447;-77
2022/11/20 02:51:59;;;;;;;0.30;0.30;;;4.60;99.90;;;;;;5116895;28;20453;-77
2022/11/20 02:54:26;;;;;;;0.30;0.30;;;4.50;99.90;;;;;;5116780;27;20467;-77
2022/11/20 02:56:53;;;;;;;0.93;0.93;;;4.50;99.90;;;;;;5116829;28;20447;-77
2022/11/20 02:59:21;;;;;;;0.30;0.30;;;4.60;99.90;;;;;;5117018;28;20439;-77
2022/11/20 03:01:48;;;;;;;1.33;0.40;;;4.60;99.90;;;;;;5116432;28;20943;-77
2022/11/20 03:04:15;;;;;;;1.07;0.60;;;4.60;99.90;;;;;;5116305;28;20468;-77
2022/11/20 03:06:42;;;;;;;0.30;0.30;;;4.60;99.90;;;;;;5116569;28;20479;-77
2022/11/20 03:09:09;;;;;;;0.83;0.83;;;4.60;99.90;;;;;;5116637;28;20443;-77
2022/11/20 03:11:36;;;;;;;0.90;0.33;;;4.60;99.90;;;;;;5116235;28;20454;-77
2022/11/20 03:14:03;;;;;;;0.50;0.40;;;4.60;99.90;;;;;;5116125;28;20994;-77
2022/11/20 03:16:32;;;;;;;0.57;0.57;;;4.50;99.90;;;;;;5116484;28;20450;-77
2022/11/20 03:19:00;;;;;;;0.30;0.30;;;4.50;99.90;;;;;;5116291;28;20506;-77
2022/11/20 03:21:27;;;;;;;0.43;0.30;;;4.40;99.90;;;;;;5116257;28;20782;-77
2022/11/20 03:23:54;;;;;;;0.30;0.20;;;4.40;99.90;;;;;;5116247;28;20470;-77
2022/11/20 03:26:23;;;;;;;0.30;0.30;;;4.40;99.90;;;;;;5116213;28;20877;-77
2022/11/20 03:28:51;;;;;;;0.30;0.30;;;4.40;99.90;;;;;;5116453;28;20443;-77
2022/11/20 03:31:20;;;;;;;4.43;0.90;;;4.30;99.90;;;;;;5116226;28;20432;-77
2022/11/20 03:33:48;;;;;;;2.20;0.70;;;4.40;99.90;;;;;;5115777;28;21004;-77
2022/11/20 03:36:17;;;;;;;0.40;0.30;;;4.40;99.90;;;;;;5116086;28;20439;-77
2022/11/20 03:38:44;;;;;;;0.30;0.30;;;4.40;99.90;;;;;;5115723;28;20939;-77
2022/11/20 03:41:13;;;;;;;0.30;0.27;;;4.30;99.90;;;;;;5115997;28;20448;-77
2022/11/20 03:43:40;;;;;;;0.50;0.30;;;4.30;99.90;;;;;;5115792;28;20966;-77
2022/11/20 03:46:07;;;;;;;0.43;0.43;;;4.30;99.90;;;;;;5115816;28;20475;-77
2022/11/20 03:48:35;;;;;;;0.30;0.30;;;4.20;99.90;;;;;;5115502;28;20444;-77
2022/11/20 03:51:11;;;;;;;0.67;0.67;;;4.10;99.90;;;;;;5115825;28;20815;-77
2022/11/20 03:53:38;;;;;;;4.90;0.60;;;4.10;99.90;;;;;;5115725;28;20459;-77
2022/11/20 03:56:06;;;;;;;1.60;0.80;;;4.10;99.90;;;;;;5115723;28;20813;-77
2022/11/20 03:58:34;;;;;;;0.30;0.30;;;4.10;99.90;;;;;;5115645;28;20439;-77
2022/11/20 04:01:06;;;;;;;0.40;0.40;;;4.10;99.90;;;;;;5115322;28;20448;-77
2022/11/20 04:03:32;;;;;;;0.60;0.43;;;4.10;99.90;;;;;;5115471;28;20464;-77
2022/11/20 04:06:03;;;;;;;0.40;0.30;;;4.10;99.90;;;;;;5115402;28;20490;-77
2022/11/20 04:08:32;;;;;;;0.37;0.37;;;4.20;99.90;;;;;;5115417;28;20447;-77
2022/11/20 04:11:13;;;;;;;0.50;0.50;;;4.20;99.90;;;;;;5115092;28;21052;-77
2022/11/20 04:13:40;;;;;;;1.17;0.30;;;4.20;99.90;;;;;;5115296;28;20471;-77
2022/11/20 04:16:08;;;;;;;0.30;0.30;;;4.30;99.90;;;;;;5115331;28;20813;-77
2022/11/20 04:18:36;;;;;;;0.30;0.30;;;4.40;99.90;;;;;;5115058;28;20464;-77
2022/11/20 04:21:04;;;;;;;0.53;0.43;;;4.50;99.90;;;;;;5114939;28;20435;-77
2022/11/20 04:23:32;;;;;;;0.30;0.30;;;4.50;99.90;;;;;;5115143;28;20474;-77
2022/11/20 04:26:02;;;;;;;0.40;0.40;;;4.50;99.90;;;;;;5115051;28;20479;-77
2022/11/20 04:28:29;;;;;;;1.03;0.70;;;4.60;99.90;;;;;;5114806;28;20481;-77
2022/11/20 04:31:03;;;;;;;0.60;0.30;;;4.60;99.90;;;;;;5114719;28;20444;-77
2022/11/20 04:33:30;;;;;;;0.30;0.30;;;4.60;99.90;;;;;;5114788;28;20490;-77
2022/11/20 04:36:01;;;;;;;0.30;0.30;;;4.60;99.90;;;;;;5114823;28;20458;-77
2022/11/20 04:38:28;;;;;;;0.30;0.30;;;4.60;99.90;;;;;;5114641;28;20432;-77
2022/11/20 04:40:59;;;;;;;0.50;0.50;;;4.60;99.90;;;;;;5114817;28;20444;-77
2022/11/20 04:43:26;;;;;;;0.60;0.37;;;4.60;99.90;;;;;;5114902;28;20468;-77
2022/11/20 04:45:53;;;;;;;0.30;0.30;;;4.70;99.90;;;;;;5114629;28;20486;-77
2022/11/20 04:48:19;;;;;;;0.30;0.30;;;4.60;99.90;;;;;;5114968;28;20443;-77
2022/11/20 04:50:46;;;;;;;1.03;0.60;;;4.70;99.90;;;;;;5114599;28;20444;-77
2022/11/20 04:53:13;;;;;;;0.70;0.40;;;4.70;99.90;;;;;;5114219;28;20835;-76
2022/11/20 04:55:40;;;;;;;0.70;0.70;;;4.70;99.90;;;;;;5114530;28;20452;-77
2022/11/20 04:58:09;;;;;;;0.40;0.30;;;4.70;99.90;;;;;;5114783;28;20440;-77
2022/11/20 05:00:35;;;;;;;0.40;0.40;;;4.80;99.90;;;;;;5114165;28;20965;-76
2022/11/20 05:03:02;;;;;;;0.47;0.43;;;4.80;99.90;;;;;;5114309;28;20448;-77
2022/11/20 05:05:29;;;;;;;0.40;0.30;;;4.80;99.90;;;;;;5113993;28;20961;-77
2022/11/20 05:07:57;;;;;;;0.40;0.40;;;4.80;99.90;;;;;;5114309;28;20824;-77
2022/11/20 05:10:24;;;;;;;1.03;0.40;;;4.80;99.90;;;;;;5114315;28;20453;-77
2022/11/20 05:12:50;;;;;;;0.30;0.30;;;4.80;99.90;;;;;;5113886;28;20999;-77
2022/11/20 05:15:19;;;;;;;0.40;0.40;;;4.90;99.90;;;;;;5113904;28;20966;-77
2022/11/20 05:17:48;;;;;;;0.30;0.30;;;4.90;99.90;;;;;;5114195;28;20448;-77
2022/11/20 05:20:15;;;;;;;0.30;0.30;;;4.90;99.90;;;;;;5113779;28;20898;-77
2022/11/20 05:22:42;;;;;;;0.30;0.30;;;4.90;99.90;;;;;;5113813;28;20965;-77
2022/11/20 05:25:09;;;;;;;0.30;0.30;;;4.90;99.90;;;;;;5113709;28;20850;-77
2022/11/20 05:27:35;;;;;;;0.50;0.50;;;4.80;99.90;;;;;;5113683;28;20480;-77
2022/11/20 05:30:03;;;;;;;1.00;1.00;;;4.90;99.90;;;;;;5114006;28;20835;-77
2022/11/20 05:32:31;;;;;;;1.77;0.43;;;4.80;99.90;;;;;;5114725;28;20451;-77
2022/11/20 05:34:58;;;;;;;0.67;0.67;;;4.90;99.90;;;;;;5113890;28;20472;-77
2022/11/20 05:37:25;;;;;;;0.40;0.40;;;4.90;99.90;;;;;;5113624;28;20939;-77
2022/11/20 05:39:51;;;;;;;0.40;0.30;;;4.90;99.90;;;;;;5113912;28;20439;-77
2022/11/20 05:42:33;;;;;;;0.30;0.30;;;4.90;99.90;;;;;;5114094;28;20809;-77
2022/11/20 05:45:01;;;;;;;0.30;0.30;;;4.90;99.90;;;;;;5113006;28;20966;-77
2022/11/20 05:47:32;;;;;;;0.67;0.60;;;4.80;99.90;;;;;;5113734;28;20839;-77
2022/11/20 05:50:00;;;;;;;0.50;0.40;;;4.80;99.90;;;;;;5113897;28;20804;-77
2022/11/20 05:52:29;;;;;;;0.47;0.30;;;4.80;99.90;;;;;;5113926;28;20448;-77
2022/11/20 05:54:56;;;;;;;0.30;0.30;;;4.90;99.90;;;;;;5113340;28;20468;-77
2022/11/20 05:57:23;;;;;;;0.40;0.40;;;4.90;99.90;;;;;;5113506;28;20965;-77
2022/11/20 05:59:49;;;;;;;0.60;0.50;;;5.00;99.90;;;;;;5114018;28;20440;-77
2022/11/20 06:02:16;;;;;;;0.30;0.27;;;5.00;99.90;;;;;;5113733;28;20447;-77
2022/11/20 06:04:43;;;;;;;0.30;0.30;;;5.00;99.90;;;;;;5113596;28;20459;-77
2022/11/20 06:07:11;;;;;;;0.30;0.30;;;5.10;99.90;;;;;;5113628;27;20480;-77
2022/11/20 06:09:38;;;;;;;0.40;0.40;;;5.10;99.90;;;;;;5113577;28;20469;-77
2022/11/20 06:12:05;;;;;;;0.30;0.30;;;5.00;99.90;;;;;;5113586;28;20444;-77
2022/11/20 06:14:32;;;;;;;0.40;0.40;;;5.00;99.90;;;;;;5113462;28;20467;-77
2022/11/20 06:16:59;;;;;;;0.40;0.30;;;5.00;99.90;;;;;;5113574;28;20436;-77
2022/11/20 06:19:26;;;;;;;0.30;0.30;;;5.00;99.90;;;;;;5113293;28;20475;-77
2022/11/20 06:21:53;;;;;;;0.30;0.30;;;5.00;99.90;;;;;;5113724;28;20450;-77
2022/11/20 06:24:21;;;;;;;2.83;0.60;;;5.00;99.90;;;;;;5113375;28;20470;-77
2022/11/20 06:26:47;;;;;;;0.57;0.57;;;5.00;99.90;;;;;;5113035;28;20478;-77
2022/11/20 06:29:14;;;;;;;0.40;0.40;;;5.10;99.90;;;;;;5113386;28;20450;-77
2022/11/20 06:31:42;;;;;;;0.50;0.40;;;5.10;99.90;;;;;;5113428;28;20444;-77
2022/11/20 06:34:09;;;;;;;0.30;0.20;;;5.10;99.90;;;;;;5112994;28;21002;-77
2022/11/20 06:36:36;;;;;;;0.30;0.30;;;5.20;99.90;;;;;;5113349;28;20451;-77
2022/11/20 06:39:04;;;;;;;1.57;0.40;;;5.10;99.90;;;;;;5113340;28;20448;-77
2022/11/20 06:41:32;;;;;;;0.40;0.40;;;5.10;99.90;;;;;;5113356;28;20444;-77
2022/11/20 06:43:59;;;;;;;0.40;0.30;;;5.10;99.90;;;;;;5113170;28;20463;-77
2022/11/20 06:46:25;;;;;;;0.30;0.30;;;5.10;99.90;;;;;;5113160;28;20486;-77
2022/11/20 06:48:52;;;;;;;0.30;0.30;;;5.10;99.90;;;;;;5112934;28;20969;-77
2022/11/20 06:51:19;;;;;;;2.10;0.60;;;5.10;99.90;;;;;;5113241;28;20581;-77
2022/11/20 06:53:46;;;;;;;1.27;0.60;;;5.10;99.90;;;;;;5113158;28;20466;-77
2022/11/20 06:56:13;;;;;;;0.30;0.30;;;5.10;99.90;;;;;;5114273;28;20435;-77
2022/11/20 06:58:41;;;;;;;0.63;0.63;;;5.20;99.90;;;;;;5116487;28;20458;-77
2022/11/20 07:01:11;;;;;;;0.43;0.40;;;5.20;99.90;;;;;;5116814;28;20444;-77
2022/11/20 07:03:38;;;;;;;2.20;0.43;;;5.20;99.90;;;;;;5116380;28;20990;-77
2022/11/20 07:06:06;;;;;;;0.37;0.27;;;5.30;99.90;;;;;;5116337;28;20828;-77
2022/11/20 07:08:33;;;;;;;0.47;0.30;;;5.30;99.90;;;;;;5116341;28;20448;-77
2022/11/20 07:11:02;;;;;;;0.40;0.33;;;5.30;99.90;;;;;;5116631;28;20447;-77
2022/11/20 07:13:29;;;;;;;0.73;0.50;;;5.30;99.90;;;;;;5116473;28;20840;-77
2022/11/20 07:16:00;;;;;;;0.40;0.33;;;5.30;99.90;;;;;;5116512;28;20454;-77
2022/11/20 07:18:27;;;;;;;0.63;0.63;;;5.40;99.90;;;;;;5116139;28;20493;-77
2022/11/20 07:20:54;;;;;;;0.30;0.30;;;5.40;99.90;;;;;;5116441;28;20432;-76
2022/11/20 07:23:21;;;;;;;0.77;0.77;;;5.40;99.90;;;;;;5116305;28;20467;-77
2022/11/20 07:25:48;;;;;;;0.43;0.30;;;5.50;99.90;;;;;;5116315;28;20448;-77
2022/11/20 07:28:14;;;;;;;0.30;0.30;;;5.40;99.90;;;;;;5116182;28;20491;-77
2022/11/20 07:30:41;;;;;;;0.40;0.33;;;5.40;99.90;;;;;;5116231;28;20450;-77
2022/11/20 07:33:09;;;;;;;0.30;0.30;;;5.50;99.90;;;;;;5115852;28;20978;-77
2022/11/20 07:35:36;;;;;;;0.37;0.33;;;5.50;99.90;;;;;;5116126;28;20440;-77
2022/11/20 07:38:03;;;;;;;0.37;0.30;;;5.50;99.90;;;;;;5116120;28;20493;-77
2022/11/20 07:40:30;;;;;;;0.70;0.30;;;5.60;99.90;;;;;;5115941;28;20444;-77
2022/11/20 07:42:57;;;;;;;2.53;0.57;;;5.60;99.90;;;;;;5115902;28;20447;-77
2022/11/20 07:45:25;;;;;;;0.50;0.50;;;5.70;99.90;;;;;;5115817;28;20938;-76
2022/11/20 07:47:52;;;;;;;0.40;0.40;;;5.80;99.90;;;;;;5115764;28;20471;-76
2022/11/20 07:50:20;;;;;;;0.40;0.30;;;5.80;99.90;;;;;;5115552;28;20888;-76
2022/11/20 07:52:47;;;;;;;0.70;0.40;;;5.80;99.90;;;;;;5115449;28;20908;-76
2022/11/20 07:55:15;;;;;;;0.40;0.30;;;5.90;99.90;;;;;;5115741;28;20439;-76
2022/11/20 07:57:41;;;;;;;0.40;0.30;;;5.90;99.90;;;;;;5115791;28;20443;-76
2022/11/20 08:00:11;;;;;;;0.30;0.20;;;6.00;99.90;;;;;;5115288;28;20486;-76
2022/11/20 08:02:39;;;;;;;0.50;0.30;;;6.00;99.90;;;;;;5114409;28;20474;-76
2022/11/20 08:05:07;;;;;;;1.47;0.40;;;6.10;99.90;;;;;;5115170;28;20464;-77
2022/11/20 08:07:38;;;;;;;0.37;0.30;;;6.10;99.90;;;;;;5115010;28;20475;-77
2022/11/20 08:10:06;;;;;;;0.50;0.43;;;6.20;99.90;;;;;;5115248;28;20975;-77
2022/11/20 08:15:17;;;;;;;0.50;0.40;;;6.20;99.90;;;;;;5115716;28;20407;-77
2022/11/20 08:17:44;;;;;;;0.30;0.20;;;6.20;99.90;;;;;;5115341;28;20435;-77
2022/11/20 08:20:11;;;;;;;0.30;0.30;;;6.20;99.90;;;;;;5115161;28;20475;-77
2022/11/20 08:22:39;;;;;;;0.30;0.27;;;6.20;99.90;;;;;;5114868;28;20818;-77
2022/11/20 08:25:06;;;;;;;0.30;0.30;;;6.10;99.90;;;;;;5115088;27;20974;-77
2022/11/20 08:27:33;;;;;;;0.30;0.30;;;6.10;99.90;;;;;;5114990;28;20479;-77
2022/11/20 08:30:00;;;;;;;0.30;0.30;;;6.10;99.90;;;;;;5114747;28;20451;-77
2022/11/20 08:32:27;;;;;;;0.50;0.50;;;6.10;99.90;;;;;;5114981;28;20444;-77
2022/11/20 08:34:53;;;;;;;0.30;0.30;;;6.10;99.90;;;;;;5114856;28;20459;-77
2022/11/20 08:37:20;;;;;;;0.40;0.30;;;6.10;99.90;;;;;;5114936;28;20440;-78
2022/11/20 08:39:48;;;;;;;0.30;0.30;;;6.20;99.90;;;;;;5114776;28;20456;-77
2022/11/20 08:42:15;;;;;;;0.50;0.50;;;6.20;99.90;;;;;;5114853;28;20443;-78
2022/11/20 08:44:42;;;;;;;0.30;0.30;;;6.20;99.90;;;;;;5114750;27;20853;-78
2022/11/20 08:47:09;;;;;;;0.30;0.30;;;6.30;99.90;;;;;;5114667;28;20580;-78
2022/11/20 08:49:36;;;;;;;1.27;0.50;;;6.40;99.90;;;;;;5114688;28;20469;-78
2022/11/20 08:52:03;;;;;;;0.30;0.30;;;6.50;99.90;;;;;;5114334;28;20951;-77
2022/11/20 08:54:29;;;;;;;0.43;0.40;;;6.60;99.90;;;;;;5114678;28;20474;-78
2022/11/20 08:56:58;;;;;;;1.03;0.47;;;6.70;99.90;;;;;;5114538;28;20444;-77
2022/11/20 08:59:24;;;;;;;0.30;0.30;;;6.70;99.90;;;;;;5114492;28;20447;-77
2022/11/20 09:01:51;;;;;;;0.40;0.30;;;6.80;99.90;;;;;;5114495;28;20444;-78
2022/11/20 09:04:18;;;;;;;0.30;0.20;;;6.90;99.90;;;;;;5114105;28;20506;-77
2022/11/20 09:06:45;;;;;;;0.30;0.20;;;6.90;99.90;;;;;;5114023;28;21006;-78
2022/11/20 09:09:12;;;;;;;0.30;0.30;;;6.80;99.90;;;;;;5114406;28;20478;-78
2022/11/20 09:11:38;;;;;;;0.40;0.30;;;6.80;99.90;;;;;;5114244;28;20463;-78
2022/11/20 09:14:07;;;;;;;0.70;0.70;;;6.80;99.90;;;;;;5114210;28;20475;-77
2022/11/20 09:16:33;;;;;;;0.30;0.20;;;6.80;99.90;;;;;;5114216;28;20448;-77
2022/11/20 09:19:00;;;;;;;0.30;0.20;;;6.80;99.90;;;;;;5113178;28;20483;-77
2022/11/20 09:21:27;;;;;;;0.40;0.30;;;6.80;99.90;;;;;;5115087;28;20804;-78
2022/11/20 09:23:54;;;;;;;0.60;0.37;;;6.80;99.90;;;;;;5114064;28;20486;-78
2022/11/20 09:26:20;;;;;;;0.40;0.37;;;6.80;99.90;;;;;;5114097;28;20469;-77
2022/11/20 09:28:47;;;;;;;0.50;0.30;;;6.80;99.90;;;;;;5113711;28;21024;-77
2022/11/20 09:31:22;;;;;;;0.30;0.30;;;6.70;99.90;;;;;;5113930;28;20451;-77
2022/11/20 09:33:49;;;;;;;0.30;0.30;;;6.70;99.90;;;;;;5114230;28;20466;-78
2022/11/20 09:36:16;;;;;;;0.37;0.30;;;6.70;99.90;;;;;;5113959;28;20448;-78
2022/11/20 09:38:43;;;;;;;0.30;0.20;;;6.70;99.90;;;;;;5113973;28;20508;-78
2022/11/20 09:41:26;;;;;;;0.50;0.50;;;6.60;99.90;;;;;;5113619;28;20942;-78
2022/11/20 09:44:00;;;;;;;0.40;0.40;;;6.70;99.90;;;;;;5113861;28;20814;-77
2022/11/20 09:46:36;;;;;;;0.60;0.30;;;6.70;99.90;;;;;;5113899;28;20437;-78
2022/11/20 09:49:19;;;;;;;0.30;0.30;;;6.70;99.90;;;;;;5113898;28;20435;-78
2022/11/20 09:51:54;;;;;;;1.73;0.50;;;6.70;99.90;;;;;;5113877;28;20497;-78
2022/11/20 09:54:23;;;;;;;0.30;0.27;;;6.80;99.90;;;;;;5113776;28;20827;-78
2022/11/20 09:56:55;;;;;;;0.43;0.43;;;6.70;99.90;;;;;;5113733;28;20448;-78
2022/11/20 09:59:34;;;;;;;0.40;0.30;;;6.70;99.90;;;;;;5113789;28;20424;-78
2022/11/20 10:02:13;;;;;;;0.73;0.30;;;6.70;99.90;;;;;;5113672;28;20510;-78
2022/11/20 10:04:45;;;;;;;0.67;0.33;;;6.70;99.90;;;;;;5113559;28;20459;-78
2022/11/20 10:07:16;;;;;;;0.40;0.30;;;6.70;99.90;;;;;;5113037;28;21037;-76
2022/11/20 10:09:51;;;;;;;0.37;0.37;;;6.80;99.90;;;;;;5113125;28;20919;-77
2022/11/20 10:12:26;;;;;;;0.30;0.20;;;6.80;99.90;;;;;;5112421;28;20595;-77
2022/11/20 10:15:11;;;;;;;0.30;0.20;;;6.80;99.90;;;;;;5113539;28;20561;-77
2022/11/20 10:18:04;;;;;;;0.30;0.30;;;6.90;99.90;;;;;;5113511;28;20428;-77
2022/11/20 10:20:39;;;;;;;0.30;0.30;;;6.90;99.90;;;;;;5113345;28;20906;-76
2022/11/20 10:23:25;;;;;;;0.30;0.30;;;6.90;99.90;;;;;;5113161;28;21004;-76
2022/11/20 10:25:59;;;;;;;0.30;0.30;;;6.90;99.90;;;;;;5113629;28;20440;-76
2022/11/20 10:28:44;;;;;;;0.40;0.30;;;6.80;99.90;;;;;;5113145;28;20460;-76
2022/11/20 10:31:27;;;;;;;0.67;0.53;;;6.80;99.90;;;;;;5116200;28;20454;-76
2022/11/20 10:33:57;;;;;;;0.40;0.30;;;6.80;99.90;;;;;;5117437;28;20467;-77
2022/11/20 10:36:28;;;;;;;0.93;0.60;;;6.80;99.90;;;;;;5117319;28;20447;-76
2022/11/20 10:39:01;;;;;;;1.23;0.70;;;6.80;99.90;;;;;;5117305;28;20431;-77
2022/11/20 10:41:32;;;;;;;0.40;0.37;;;6.90;99.90;;;;;;5117263;28;20428;-77
2022/11/20 10:44:05;;;;;;;0.60;0.60;;;6.90;99.90;;;;;;5117098;28;20477;-77
2022/11/20 10:46:39;;;;;;;0.30;0.23;;;6.90;99.90;;;;;;5117228;28;20431;-76
2022/11/20 10:49:13;;;;;;;0.30;0.30;;;6.80;99.90;;;;;;5117133;27;20594;-76
2022/11/20 10:51:49;;;;;;;0.37;0.30;;;6.80;99.90;;;;;;5116772;28;20431;-77
2022/11/20 10:54:23;;;;;;;0.30;0.20;;;6.80;99.90;;;;;;5116613;28;20474;-77
2022/11/20 10:56:53;;;;;;;0.30;0.20;;;6.80;99.90;;;;;;5117002;28;20434;-77
2022/11/20 10:59:39;;;;;;;0.40;0.30;;;6.90;99.90;;;;;;5117749;28;20790;-77
2022/11/20 11:02:20;;;;;;;0.30;0.20;;;7.00;99.90;;;;;;5116874;28;20451;-77
2022/11/20 11:04:50;;;;;;;0.30;0.20;;;7.20;99.90;;;;;;5116712;28;20460;-77
2022/11/20 11:07:21;;;;;;;0.87;0.30;;;7.40;99.90;;;;;;5116623;28;20817;-77
2022/11/20 11:09:50;;;;;;;1.00;0.40;;;7.40;99.90;;;;;;5116394;28;20926;-77
2022/11/20 11:12:17;;;;;;;0.30;0.30;;;7.50;99.90;;;;;;5116585;28;20820;-76
2022/11/20 11:14:46;;;;;;;0.50;0.50;;;7.50;99.90;;;;;;5116532;28;20464;-77
2022/11/20 11:17:26;;;;;;;0.30;0.30;;;7.60;99.90;;;;;;5116621;28;20436;-77
2022/11/20 11:20:03;;;;;;;0.33;0.30;;;7.60;99.90;;;;;;5116511;28;20482;-77
2022/11/20 11:22:32;;;;;;;0.40;0.33;;;7.60;99.90;;;;;;5116687;28;20444;-77
2022/11/20 11:24:59;;;;;;;0.30;0.30;;;7.60;99.90;;;;;;5116346;28;20474;-76
2022/11/20 11:27:26;;;;;;;0.50;0.40;;;7.60;99.90;;;;;;5116266;28;20483;-77
2022/11/20 11:30:12;;;;;;;0.50;0.50;;;7.70;99.90;;;;;;5116326;28;20444;-77
2022/11/20 11:32:39;;;;;;;1.43;1.37;;;7.80;99.90;;;;;;5116276;28;20481;-77
2022/11/20 11:35:20;;;;;;;1.10;0.90;;;7.90;99.90;;;;;;5116156;28;20471;-77
2022/11/20 11:37:48;;;;;;;0.43;0.43;;;8.00;99.90;;;;;;5116165;28;20424;-77
2022/11/20 11:40:17;;;;;;;0.60;0.60;;;8.00;99.90;;;;;;5116115;28;20448;-77
2022/11/20 11:42:45;;;;;;;1.43;0.40;;;7.90;99.90;;;;;;5115350;28;20540;-77
2022/11/20 11:45:14;;;;;;;0.37;0.30;;;7.90;99.90;;;;;;5115991;28;20444;-77
2022/11/20 11:47:47;;;;;;;0.70;0.47;;;7.90;99.90;;;;;;5115907;28;20476;-77
2022/11/20 11:50:21;;;;;;;0.53;0.53;;;7.80;99.90;;;;;;5115659;28;20935;-77
2022/11/20 11:52:56;;;;;;;1.37;0.73;;;7.80;99.90;;;;;;5115791;28;20432;-77
2022/11/20 11:55:30;;;;;;;0.80;0.80;;;7.80;99.90;;;;;;5115571;28;20432;-76
2022/11/20 11:58:10;;;;;;;1.03;0.40;;;7.80;99.90;;;;;;5115818;28;20429;-77
2022/11/20 12:00:40;;;;;;;2.40;0.80;;;7.80;99.90;;;;;;5115512;28;20923;-77
2022/11/20 12:03:15;;;;;;;2.73;0.40;;;7.80;99.90;;;;;;5115605;28;20478;-77
2022/11/20 12:05:46;;;;;;;0.30;0.30;;;7.80;99.90;;;;;;5115327;28;20431;-76
2022/11/20 12:08:19;;;;;;;0.47;0.47;;;7.70;99.90;;;;;;5115551;28;20463;-76
2022/11/20 12:10:50;;;;;;;2.00;0.30;;;7.70;99.90;;;;;;5115561;28;20435;-76
2022/11/20 12:13:38;;;;;;;3.43;1.13;;;7.70;99.90;;;;;;5115414;28;20476;-77
2022/11/20 12:16:05;;;;;;;1.57;0.90;;;7.80;99.90;;;;;;5115463;28;20420;-76
2022/11/20 12:18:32;;;;;;;0.33;0.30;;;7.90;99.90;;;;;;5115102;28;20443;-77
2022/11/20 12:21:16;;;;;;;0.37;0.33;;;7.90;99.90;;;;;;5115050;28;20915;-77
2022/11/20 12:23:59;;;;;;;0.30;0.30;;;7.90;99.90;;;;;;5114861;28;20463;-76
2022/11/20 12:26:40;;;;;;;0.60;0.40;;;7.90;99.90;;;;;;5115223;28;20477;-76
2022/11/20 12:29:16;;;;;;;0.37;0.33;;;8.10;99.90;;;;;;5115124;28;20470;-77
2022/11/20 12:32:00;;;;;;;0.50;0.37;;;8.20;99.90;;;;;;5115162;28;20443;-77
2022/11/20 12:34:48;;;;;;;0.30;0.30;;;8.30;99.90;;;;;;5114993;28;20467;-76
2022/11/20 12:37:34;;;;;;;0.30;0.30;;;8.30;99.90;;;;;;5115232;28;20428;-76
2022/11/20 12:40:12;;;;;;;0.30;0.20;;;8.20;99.90;;;;;;5114978;28;20547;-76
2022/11/20 12:45:52;;;;;;;0.50;0.50;;;8.20;99.90;;;;;;5115139;28;20415;-76
2022/11/20 12:49:02;;;;;;;0.47;0.30;;;8.20;99.90;;;;;;5114425;28;20464;-76
2022/11/20 12:51:52;;;;;;;0.40;0.40;;;8.20;99.90;;;;;;5089675;27;20459;-76
2022/11/20 12:54:56;;;;;;;0.30;0.30;;;8.10;99.90;;;;;;5114296;28;20459;-76
2022/11/20 12:57:31;;;;;;;0.30;0.30;;;8.10;99.90;;;;;;5105273;28;20962;-76
2022/11/20 13:00:13;;;;;;;0.87;0.30;;;8.10;99.90;;;;;;5114579;28;20438;-76
2022/11/20 13:03:16;;;;;;;0.30;0.30;;;8.10;99.90;;;;;;5114147;28;20478;-76
2022/11/20 13:05:51;;;;;;;0.30;0.30;;;8.10;99.90;;;;;;5114207;28;20432;-76
2022/11/20 13:08:23;;;;;;;0.30;0.30;;;8.10;99.90;;;;;;5114098;28;20841;-76
2022/11/20 13:10:57;;;;;;;0.37;0.30;;;8.00;99.90;;;;;;5114381;28;20424;-76
2022/11/20 13:13:34;;;;;;;3.33;0.60;;;7.90;99.90;;;;;;5114310;28;20463;-76
2022/11/20 13:16:09;;;;;;;0.30;0.20;;;7.80;99.90;;;;;;5114058;28;20933;-76
2022/11/20 13:18:41;;;;;;;0.93;0.40;;;7.80;99.90;;;;;;5114060;28;20541;-77
2022/11/20 13:21:16;;;;;;;0.63;0.30;;;7.90;99.90;;;;;;5113933;28;20990;-76